createdAt,value
2022-12-17T00:01:23.958Z,177.80
2022-12-17T02:15:30.237Z,331.88
2022-12-17T02:18:06.059Z,558.75
2022-12-17T02:20:41.457Z,371.52
2022-12-17T02:23:22.829Z,163.85
2022-12-17T02:26:05.345Z,149.73
2022-12-17T02:28:26.429Z,290.75
2022-12-17T02:30:48.729Z,148.38
2022-12-17T02:33:10.481Z,266.90
2022-12-17T02:35:42.482Z,313.48
2022-12-17T02:38:09.278Z,74.00
2022-12-17T02:40:30.312Z,364.58
2022-12-17T02:42:51.801Z,57.22
2022-12-17T02:45:13.466Z,66.95
2022-12-17T02:47:35.480Z,151.47
2022-12-17T02:49:55.645Z,96.10
2022-12-17T02:52:18.421Z,87.40
2022-12-17T02:54:38.772Z,131.45
2022-12-17T02:56:59.303Z,98.32
2022-12-17T02:59:19.574Z,150.35
2022-12-17T03:01:39.901Z,380.08
2022-12-17T03:04:00.324Z,260.27
2022-12-17T03:06:20.626Z,262.83
2022-12-17T03:08:40.872Z,207.73
2022-12-17T03:11:01.201Z,170.85
2022-12-17T03:13:21.644Z,90.20
2022-12-17T03:15:42.257Z,120.05
2022-12-17T03:18:02.581Z,108.40
2022-12-17T03:20:23.641Z,230.55
2022-12-17T03:22:44.230Z,915.25
2022-12-17T03:25:04.510Z,167.32
2022-12-17T03:27:24.954Z,281.48
2022-12-17T03:29:45.654Z,316.50
2022-12-17T03:32:06.055Z,259.48
2022-12-17T03:34:26.675Z,417.42
2022-12-17T03:36:47.211Z,405.65
2022-12-17T03:39:07.691Z,752.45
2022-12-17T03:41:28.126Z,233.68
2022-12-17T03:43:48.673Z,254.25
2022-12-17T03:46:15.374Z,564.45
2022-12-17T03:48:35.700Z,570.40
2022-12-17T03:50:56.153Z,338.52
2022-12-17T03:53:18.159Z,203.48
2022-12-17T03:55:38.568Z,442.73
2022-12-17T03:57:58.845Z,261.95
2022-12-17T04:00:19.369Z,642.30
2022-12-17T04:02:40.081Z,587.65
2022-12-17T04:05:00.728Z,409.40
2022-12-17T04:07:21.086Z,209.57
2022-12-17T04:09:41.510Z,348.50
2022-12-17T04:12:01.723Z,503.35
2022-12-17T04:14:22.179Z,171.80
2022-12-17T04:16:42.597Z,396.33
2022-12-17T04:19:03.115Z,576.45
2022-12-17T04:21:23.846Z,365.08
2022-12-17T04:23:44.325Z,530.38
2022-12-17T04:26:04.551Z,740.42
2022-12-17T04:28:41.922Z,618.08
2022-12-17T04:31:02.123Z,648.38
2022-12-17T04:33:22.634Z,628.10
2022-12-17T04:35:43.153Z,550.03
2022-12-17T04:38:03.323Z,738.83
2022-12-17T04:40:24.165Z,347.88
2022-12-17T04:42:44.629Z,546.22
2022-12-17T04:45:04.745Z,256.88
2022-12-17T04:47:25.244Z,653.20
2022-12-17T04:49:45.562Z,588.88
2022-12-17T04:52:06.166Z,353.92
2022-12-17T04:54:26.843Z,417.50
2022-12-17T04:56:46.971Z,193.00
2022-12-17T04:59:07.702Z,422.27
2022-12-17T05:01:28.308Z,551.53
2022-12-17T05:03:48.877Z,534.38
2022-12-17T05:06:09.156Z,511.73
2022-12-17T05:08:29.675Z,128.35
2022-12-17T05:10:49.964Z,389.73
2022-12-17T05:13:20.280Z,295.05
2022-12-17T05:15:40.969Z,323.67
2022-12-17T05:18:01.712Z,354.83
2022-12-17T05:20:22.243Z,254.98
2022-12-17T05:22:42.912Z,150.63
2022-12-17T05:25:03.127Z,369.95
2022-12-17T05:27:23.661Z,141.18
2022-12-17T05:29:44.146Z,138.57
2022-12-17T05:32:04.446Z,202.55
2022-12-17T05:34:25.000Z,219.48
2022-12-17T05:36:45.804Z,524.83
2022-12-17T05:39:07.333Z,262.80
2022-12-17T05:41:27.535Z,173.23
2022-12-17T05:43:48.142Z,160.88
2022-12-17T05:46:09.207Z,276.55
2022-12-17T05:48:29.770Z,513.72
2022-12-17T05:50:50.370Z,221.73
2022-12-17T05:53:10.649Z,241.25
2022-12-17T05:55:31.129Z,222.05
2022-12-17T05:57:56.180Z,210.38
2022-12-17T06:00:17.100Z,91.15
2022-12-17T08:15:18.197Z,645.25
2022-12-17T08:17:38.887Z,938.13
2022-12-17T08:19:59.736Z,673.42
2022-12-17T08:22:20.261Z,433.42
2022-12-17T08:24:40.915Z,948.17
2022-12-17T08:27:01.479Z,429.15
2022-12-17T08:29:38.694Z,889.25
2022-12-17T08:31:59.182Z,1052.88
2022-12-17T08:34:19.672Z,821.13
2022-12-17T08:36:40.606Z,1163.82
2022-12-17T08:39:01.954Z,840.45
2022-12-17T08:41:22.774Z,804.30
2022-12-17T08:43:43.225Z,648.47
2022-12-17T08:46:07.968Z,760.33
2022-12-17T08:48:28.296Z,1000.55
2022-12-17T08:50:48.868Z,890.80
2022-12-17T08:53:18.912Z,970.13
2022-12-17T08:55:38.923Z,636.85
2022-12-17T08:57:59.504Z,781.55
2022-12-17T09:00:19.560Z,1022.25
2022-12-17T09:02:40.195Z,864.92
2022-12-17T09:05:00.820Z,802.63
2022-12-17T09:07:21.466Z,609.30
2022-12-17T09:09:41.961Z,400.40
2022-12-17T09:12:02.616Z,661.55
2022-12-17T09:14:23.924Z,656.05
2022-12-17T09:16:44.401Z,427.48
2022-12-17T09:19:05.539Z,488.50
2022-12-17T09:21:26.429Z,437.17
2022-12-17T09:23:46.898Z,622.60
2022-12-17T09:26:15.629Z,691.53
2022-12-17T09:28:36.294Z,847.75
2022-12-17T09:30:56.659Z,651.15
2022-12-17T09:33:16.918Z,553.25
2022-12-17T09:35:37.051Z,562.30
2022-12-17T09:37:57.732Z,821.80
2022-12-17T09:40:18.230Z,448.98
2022-12-17T09:42:59.697Z,974.63
2022-12-17T09:45:20.298Z,944.95
2022-12-17T09:48:30.804Z,1234.63
2022-12-17T09:50:53.145Z,795.67
2022-12-17T09:53:13.687Z,874.08
2022-12-17T09:55:53.199Z,865.88
2022-12-17T09:58:13.689Z,510.70
2022-12-17T10:00:35.970Z,193.07
2022-12-17T10:02:57.533Z,460.98
2022-12-17T10:05:21.095Z,817.47
2022-12-17T10:07:50.946Z,960.80
2022-12-17T10:10:11.937Z,1140.95
2022-12-17T10:12:34.929Z,395.50
2022-12-17T10:14:55.183Z,349.17
2022-12-17T10:17:15.637Z,81.78
2022-12-17T10:19:52.832Z,230.13
2022-12-17T10:22:27.072Z,396.30
2022-12-17T10:24:47.711Z,176.23
2022-12-17T10:27:08.568Z,554.25
2022-12-17T10:29:47.352Z,326.60
2022-12-17T10:32:08.822Z,475.48
2022-12-17T10:34:37.639Z,111.95
2022-12-17T10:37:08.286Z,374.83
2022-12-17T10:39:42.779Z,132.73
2022-12-17T10:42:03.274Z,485.42
2022-12-17T10:44:45.572Z,226.05
2022-12-17T10:47:15.208Z,120.88
2022-12-17T10:49:43.379Z,322.85
2022-12-17T10:52:04.247Z,540.88
2022-12-17T10:54:49.038Z,483.45
2022-12-17T10:57:13.767Z,432.25
2022-12-17T10:59:55.135Z,212.18
2022-12-17T11:02:18.840Z,194.77
2022-12-17T11:04:48.227Z,295.02
2022-12-17T11:07:12.338Z,828.95
2022-12-17T11:10:08.526Z,428.67
2022-12-17T11:12:31.725Z,434.88
2022-12-17T11:14:58.637Z,769.70
2022-12-17T11:17:23.623Z,695.53
2022-12-17T11:19:47.735Z,376.25
2022-12-17T11:22:10.885Z,807.55
2022-12-17T11:24:43.269Z,286.75
2022-12-17T11:27:05.443Z,409.92
2022-12-17T11:29:32.977Z,603.63
2022-12-17T11:31:53.184Z,319.88
2022-12-17T11:34:30.319Z,98.57
2022-12-17T11:37:00.995Z,301.88
2022-12-17T11:39:46.295Z,378.92
2022-12-17T11:42:25.586Z,624.80
2022-12-17T11:45:25.434Z,65.25
2022-12-17T11:47:59.017Z,624.65
2022-12-17T11:50:45.646Z,395.42
2022-12-17T11:53:24.230Z,237.30
2022-12-17T11:56:03.120Z,88.90
2022-12-17T11:58:38.984Z,366.77
2022-12-17T12:01:25.150Z,155.93
2022-12-17T14:13:50.420Z,93.05
2022-12-17T14:17:57.405Z,89.10
2022-12-17T14:20:15.289Z,90.28
2022-12-17T14:22:24.124Z,85.15
2022-12-17T14:24:29.339Z,85.05
2022-12-17T14:26:31.415Z,83.40
2022-12-17T14:28:36.155Z,84.07
2022-12-17T14:30:46.296Z,84.88
2022-12-17T14:32:59.031Z,72.32
2022-12-17T14:35:01.212Z,81.80
2022-12-17T14:37:03.181Z,77.45
2022-12-17T14:39:24.381Z,76.15
2022-12-17T14:41:47.506Z,79.88
2022-12-17T14:43:59.045Z,70.75
2022-12-17T14:46:20.159Z,78.47
2022-12-17T14:48:48.962Z,84.15
2022-12-17T14:50:56.478Z,79.05
2022-12-17T14:53:01.017Z,70.45
2022-12-17T14:55:38.520Z,69.95
2022-12-17T14:57:40.470Z,71.95
2022-12-17T14:59:43.510Z,67.55
2022-12-17T15:01:45.401Z,66.40
2022-12-17T15:03:47.553Z,70.50
2022-12-17T15:07:56.172Z,68.18
2022-12-17T15:10:00.987Z,67.28
2022-12-17T15:12:03.000Z,74.78
2022-12-17T15:14:04.957Z,77.93
2022-12-17T15:16:13.595Z,76.72
2022-12-17T15:18:22.311Z,67.05
2022-12-17T15:20:27.367Z,74.18
2022-12-17T15:22:29.296Z,61.95
2022-12-17T15:24:31.887Z,69.55
2022-12-17T15:26:33.863Z,72.45
2022-12-17T15:28:39.328Z,71.00
2022-12-17T15:30:48.151Z,65.72
2022-12-17T15:32:54.729Z,65.22
2022-12-17T15:34:57.860Z,63.67
2022-12-17T15:37:00.482Z,55.70
2022-12-17T15:39:02.474Z,60.35
2022-12-17T15:41:26.381Z,59.88
2022-12-17T15:43:29.194Z,54.33
2022-12-17T15:45:34.147Z,54.25
2022-12-17T15:47:36.032Z,53.08
2022-12-17T15:49:37.938Z,51.53
2022-12-17T15:51:39.923Z,53.67
2022-12-17T15:53:41.816Z,63.85
2022-12-17T15:55:43.910Z,61.50
2022-12-17T15:59:47.595Z,58.37
2022-12-17T16:01:49.708Z,54.70
2022-12-17T16:03:55.132Z,57.30
2022-12-17T16:06:00.626Z,54.80
2022-12-17T16:08:03.261Z,51.13
2022-12-17T16:10:08.381Z,50.28
2022-12-17T16:12:10.305Z,53.03
2022-12-17T16:14:12.212Z,51.25
2022-12-17T16:16:14.147Z,47.08
2022-12-17T16:18:17.749Z,44.97
2022-12-17T16:20:19.699Z,48.97
2022-12-17T16:22:21.924Z,44.28
2022-12-17T16:24:23.781Z,48.80
2022-12-17T16:26:25.736Z,48.47
2022-12-17T16:28:28.974Z,45.20
2022-12-17T16:30:30.844Z,51.38
2022-12-17T16:32:36.666Z,46.47
2022-12-17T16:34:39.045Z,41.70
2022-12-17T16:38:51.514Z,43.97
2022-12-17T16:40:58.135Z,45.25
2022-12-17T16:42:59.978Z,44.25
2022-12-17T16:45:01.910Z,42.38
2022-12-17T16:47:04.264Z,43.20
2022-12-17T16:49:33.242Z,46.42
2022-12-17T16:51:36.259Z,38.47
2022-12-17T16:53:38.118Z,43.20
2022-12-17T16:55:45.186Z,41.60
2022-12-17T16:57:48.059Z,43.33
2022-12-17T16:59:49.965Z,39.22
2022-12-17T17:01:53.105Z,42.22
2022-12-17T17:03:56.026Z,46.70
2022-12-17T17:06:01.059Z,45.83
2022-12-17T17:08:03.704Z,46.53
2022-12-17T17:10:06.124Z,47.65
2022-12-17T17:12:09.051Z,42.15
2022-12-17T17:14:11.164Z,47.80
2022-12-17T17:18:15.011Z,42.90
2022-12-17T17:20:17.231Z,41.55
2022-12-17T17:22:19.162Z,48.42
2022-12-17T17:24:25.261Z,46.90
2022-12-17T17:26:32.323Z,52.83
2022-12-17T17:28:34.446Z,51.67
2022-12-17T17:30:36.492Z,45.60
2022-12-17T17:32:38.586Z,49.80
2022-12-17T17:36:42.737Z,47.50
2022-12-17T17:38:45.434Z,50.97
2022-12-17T17:40:47.333Z,45.47
2022-12-17T17:42:53.057Z,47.13
2022-12-17T17:44:55.755Z,46.15
2022-12-17T17:46:57.837Z,50.75
2022-12-17T17:51:06.478Z,47.50
2022-12-17T17:53:08.705Z,45.50
2022-12-17T17:55:10.554Z,45.75
2022-12-17T17:57:12.469Z,46.83
2022-12-17T17:59:20.117Z,43.03
2022-12-17T20:13:43.461Z,20.95
2022-12-17T20:15:45.290Z,26.30
2022-12-17T20:17:47.146Z,25.42
2022-12-17T20:19:49.545Z,12.90
2022-12-17T20:21:52.474Z,10.23
2022-12-17T20:23:54.709Z,7.68
2022-12-17T20:26:08.314Z,8.82
2022-12-17T20:28:10.178Z,9.00
2022-12-17T20:30:12.303Z,12.20
2022-12-17T20:34:17.913Z,8.18
2022-12-17T20:36:21.160Z,6.03
2022-12-17T20:38:23.607Z,6.88
2022-12-17T20:40:25.506Z,6.15
2022-12-17T20:42:27.431Z,4.32
2022-12-17T20:44:29.415Z,4.70
2022-12-17T20:46:31.730Z,5.38
2022-12-17T20:48:33.742Z,4.88
2022-12-17T20:50:40.972Z,4.57
2022-12-17T20:52:42.825Z,4.15
2022-12-17T20:54:44.927Z,4.60
2022-12-17T20:58:53.171Z,4.30
2022-12-17T21:01:03.901Z,4.28
2022-12-17T21:03:06.515Z,5.78
2022-12-17T21:05:08.769Z,4.30
2022-12-17T21:09:13.703Z,4.55
2022-12-17T21:11:16.825Z,4.88
2022-12-17T21:13:30.992Z,5.15
2022-12-17T21:15:32.941Z,4.57
2022-12-17T21:17:34.801Z,5.63
2022-12-17T21:19:36.695Z,4.85
2022-12-17T21:21:39.608Z,5.65
2022-12-17T21:23:41.591Z,6.18
2022-12-17T21:25:43.433Z,6.18
2022-12-17T21:27:45.387Z,7.97
2022-12-17T21:29:47.304Z,7.97
2022-12-17T21:31:51.718Z,7.00
2022-12-17T21:33:56.163Z,6.13
2022-12-17T21:36:07.697Z,9.02
2022-12-17T21:38:10.817Z,7.57
2022-12-17T21:40:13.275Z,8.25
2022-12-17T21:42:33.859Z,7.93
2022-12-17T21:44:36.172Z,8.32
2022-12-17T21:46:38.176Z,9.30
2022-12-17T21:50:45.525Z,10.30
2022-12-17T21:52:48.073Z,9.48
2022-12-17T21:54:49.922Z,9.85
2022-12-17T21:56:51.795Z,13.30
2022-12-17T21:58:59.122Z,8.50
2022-12-17T22:01:19.086Z,9.73
2022-12-17T22:03:21.468Z,8.02
2022-12-17T22:05:23.519Z,9.18
2022-12-17T22:09:48.848Z,9.38
2022-12-17T22:12:13.630Z,9.10
2022-12-17T22:14:20.619Z,9.00
2022-12-17T22:16:23.265Z,9.27
2022-12-17T22:18:25.272Z,9.57
2022-12-17T22:20:27.106Z,8.88
2022-12-17T22:22:29.404Z,7.95
2022-12-17T22:24:36.338Z,6.85
2022-12-17T22:26:38.616Z,7.30
2022-12-17T22:28:40.888Z,7.40
2022-12-17T22:31:01.744Z,7.13
2022-12-17T22:33:20.035Z,7.03
2022-12-17T22:37:06.410Z,6.70
2022-12-17T22:40:47.333Z,7.57
2022-12-17T22:44:29.672Z,7.65
2022-12-17T22:44:43.761Z,6.13
2022-12-17T22:45:15.827Z,5.68
2022-12-17T22:47:18.184Z,5.82
2022-12-17T22:49:20.394Z,6.95
2022-12-17T22:51:30.106Z,8.02
2022-12-17T22:53:36.460Z,4.03
2022-12-17T22:55:40.517Z,5.13
2022-12-17T22:57:42.597Z,4.32
2022-12-17T22:59:44.792Z,5.68
2022-12-17T23:01:47.244Z,5.65
2022-12-17T23:03:49.270Z,4.75
2022-12-17T23:07:53.183Z,5.17
2022-12-17T23:09:55.173Z,4.80
2022-12-17T23:11:57.030Z,3.88
2022-12-17T23:13:58.930Z,4.07
2022-12-17T23:16:01.083Z,4.30
2022-12-17T23:20:06.739Z,4.93
2022-12-17T23:22:08.610Z,4.22
2022-12-17T23:24:10.712Z,6.53
2022-12-17T23:28:14.447Z,4.85
2022-12-17T23:32:18.855Z,4.45
2022-12-17T23:36:24.427Z,4.75
2022-12-17T23:38:26.295Z,4.35
2022-12-17T23:40:28.192Z,4.55
2022-12-17T23:42:30.155Z,4.85
2022-12-17T23:44:32.068Z,5.22
2022-12-17T23:46:34.233Z,3.33
2022-12-17T23:48:44.832Z,3.70
2022-12-17T23:50:48.370Z,4.03
2022-12-17T23:52:50.205Z,3.65
2022-12-17T23:54:52.054Z,3.92
2022-12-17T23:56:54.006Z,4.07
2022-12-17T23:58:58.641Z,3.80
